Time;durP1;ratioP1;P1;durP2;ratioP2;P2;SDS_P1;SDS_P2;PMS_P1;PMS_P2;Temp;Humidity;BMP_temperature;BMP_pressure;BME280_temperature;BME280_humidity;BME280_pressure;Samples;Min_cycle;Max_cycle;Signal;HPM_P1;HPM_P2
2024/03/04 00:02:23;;;;;;;11.23;4.03;;;7.50;99.90;;;;;;5032580;28;20206;-59
2024/03/04 00:04:49;;;;;;;10.77;5.07;;;7.50;99.90;;;;;;5032589;28;20175;-58
2024/03/04 00:07:14;;;;;;;10.47;4.33;;;7.40;99.90;;;;;;5042194;28;20186;-59
2024/03/04 00:09:40;;;;;;;16.43;3.90;;;7.30;99.90;;;;;;5036064;28;20205;-58
2024/03/04 00:12:08;;;;;;;8.23;3.33;;;7.30;99.90;;;;;;5034299;28;20174;-58
2024/03/04 00:14:34;;;;;;;13.27;5.38;;;7.30;99.90;;;;;;5040758;28;20628;-58
2024/03/04 00:17:01;;;;;;;3.80;3.25;;;7.30;99.90;;;;;;5042311;28;20261;-57
2024/03/04 00:19:27;;;;;;;13.98;4.90;;;7.40;99.90;;;;;;5034240;28;20702;-58
2024/03/04 00:21:52;;;;;;;60.37;9.33;;;7.50;99.90;;;;;;5032083;28;20171;-59
2024/03/04 00:24:18;;;;;;;23.17;6.80;;;7.50;99.90;;;;;;5031942;28;20197;-59
2024/03/04 00:26:44;;;;;;;20.00;5.43;;;7.40;99.90;;;;;;5031476;28;20179;-59
2024/03/04 00:29:09;;;;;;;37.43;5.70;;;7.30;99.90;;;;;;5031893;28;20178;-59
2024/03/04 00:31:35;;;;;;;38.27;6.57;;;7.30;99.90;;;;;;5032000;28;20242;-59
2024/03/04 00:34:00;;;;;;;11.47;4.30;;;7.30;99.90;;;;;;5031984;28;20198;-59
2024/03/04 00:36:29;;;;;;;5.27;3.87;;;7.20;99.90;;;;;;5031812;28;20174;-58
2024/03/04 00:38:55;;;;;;;22.85;6.78;;;7.30;99.90;;;;;;5031635;28;20219;-59
2024/03/04 00:41:27;;;;;;;26.27;6.30;;;7.40;99.90;;;;;;5031821;28;20193;-59
2024/03/04 00:43:53;;;;;;;31.75;5.30;;;7.30;99.90;;;;;;5031812;28;20234;-59
2024/03/04 00:46:19;;;;;;;15.82;4.32;;;7.30;99.90;;;;;;5031780;28;20178;-58
2024/03/04 00:48:46;;;;;;;19.00;5.35;;;7.30;99.90;;;;;;5031444;28;20182;-59
2024/03/04 00:51:12;;;;;;;30.80;5.68;;;7.30;99.90;;;;;;5031832;28;20299;-59
2024/03/04 00:53:39;;;;;;;22.30;6.30;;;7.40;99.90;;;;;;5031491;28;20679;-59
2024/03/04 00:56:05;;;;;;;44.13;7.65;;;7.40;99.90;;;;;;5031592;28;20177;-59
2024/03/04 00:58:31;;;;;;;5.70;3.20;;;7.50;99.90;;;;;;5031443;28;20531;-59
2024/03/04 01:00:59;;;;;;;31.83;5.38;;;7.40;99.90;;;;;;5031644;28;20276;-58
2024/03/04 01:03:25;;;;;;;27.80;4.88;;;7.40;99.90;;;;;;5032076;28;20220;-59
2024/03/04 01:05:51;;;;;;;47.67;8.07;;;7.40;99.90;;;;;;5030909;28;20182;-59
2024/03/04 01:08:18;;;;;;;17.07;5.10;;;7.40;99.90;;;;;;5031186;28;20418;-59
2024/03/04 01:10:44;;;;;;;21.63;5.45;;;7.40;99.90;;;;;;5031436;28;20546;-58
2024/03/04 01:13:10;;;;;;;19.58;6.40;;;7.40;99.90;;;;;;5031368;28;20214;-59
2024/03/04 01:15:36;;;;;;;7.78;4.25;;;7.20;99.90;;;;;;5031445;28;20205;-59
2024/03/04 01:18:02;;;;;;;15.10;4.83;;;7.20;99.90;;;;;;5031090;28;20204;-58
2024/03/04 01:20:28;;;;;;;46.10;5.50;;;7.20;99.90;;;;;;5031431;28;20200;-57
2024/03/04 01:22:54;;;;;;;11.50;4.20;;;7.20;99.90;;;;;;5031309;28;20550;-57
2024/03/04 01:25:21;;;;;;;17.08;4.78;;;7.10;99.90;;;;;;5031469;28;20421;-59
2024/03/04 01:27:47;;;;;;;9.15;4.00;;;7.10;99.90;;;;;;5030968;28;20220;-59
2024/03/04 01:30:15;;;;;;;54.97;7.23;;;7.10;99.90;;;;;;5031348;28;20226;-59
2024/03/04 01:32:42;;;;;;;14.25;5.15;;;7.10;99.90;;;;;;5031138;28;20258;-59
2024/03/04 01:35:10;;;;;;;22.65;5.00;;;7.10;99.90;;;;;;5031259;28;20261;-59
2024/03/04 01:37:38;;;;;;;27.15;6.30;;;7.10;99.90;;;;;;5030870;28;20181;-59
2024/03/04 01:40:05;;;;;;;18.55;4.80;;;7.10;99.90;;;;;;5031227;28;20229;-59
2024/03/04 01:42:30;;;;;;;27.90;5.68;;;7.10;99.90;;;;;;5031222;28;20182;-58
2024/03/04 01:44:56;;;;;;;22.83;5.90;;;7.10;99.90;;;;;;5031144;28;20548;-58
2024/03/04 01:47:23;;;;;;;20.50;4.70;;;7.10;99.90;;;;;;5031003;28;20428;-59
2024/03/04 01:49:53;;;;;;;13.15;5.80;;;6.90;99.90;;;;;;5030893;28;20200;-59
2024/03/04 01:52:23;;;;;;;15.40;5.32;;;7.00;99.90;;;;;;5031121;28;20186;-59
2024/03/04 01:54:51;;;;;;;27.08;5.90;;;7.00;99.90;;;;;;5031498;28;20166;-59
2024/03/04 01:57:18;;;;;;;40.05;7.10;;;6.90;99.90;;;;;;5031017;28;20261;-59
2024/03/04 01:59:50;;;;;;;37.58;8.20;;;6.90;99.90;;;;;;5030747;28;20189;-59
2024/03/04 02:02:16;;;;;;;11.13;5.40;;;6.90;99.90;;;;;;5031001;28;20236;-59
2024/03/04 02:04:42;;;;;;;25.67;4.93;;;6.80;99.90;;;;;;5031135;28;20182;-59
2024/03/04 02:07:08;;;;;;;15.60;5.70;;;6.90;99.90;;;;;;5030915;28;20820;-59
2024/03/04 02:09:35;;;;;;;44.15;6.07;;;6.90;99.90;;;;;;5030614;28;20165;-59
2024/03/04 02:12:04;;;;;;;25.98;6.00;;;6.90;99.90;;;;;;5068795;22;20233;-61
2024/03/04 02:14:31;;;;;;;46.90;7.38;;;6.90;99.90;;;;;;5050455;28;20455;-61
2024/03/04 02:16:56;;;;;;;16.65;4.60;;;6.90;99.90;;;;;;5051297;28;20184;-61
2024/03/04 02:19:22;;;;;;;14.37;4.40;;;6.90;99.90;;;;;;5054286;28;20177;-61
2024/03/04 02:22:01;;;;;;;24.67;4.00;;;6.80;99.90;;;;;;5054320;28;20198;-61
2024/03/04 02:24:27;;;;;;;29.33;6.47;;;6.90;99.90;;;;;;5036422;28;20740;-61
2024/03/04 02:26:53;;;;;;;19.03;4.77;;;6.70;99.90;;;;;;5054143;28;20271;-61
2024/03/04 02:29:18;;;;;;;11.07;4.22;;;6.70;99.90;;;;;;5054208;28;20201;-61
2024/03/04 02:31:45;;;;;;;25.37;6.03;;;6.70;99.90;;;;;;5054326;28;20199;-61
2024/03/04 02:34:13;;;;;;;18.35;4.70;;;6.70;99.90;;;;;;5054063;28;20205;-61
2024/03/04 02:36:40;;;;;;;26.83;5.43;;;6.70;99.90;;;;;;5054005;28;20164;-61
2024/03/04 02:39:10;;;;;;;13.23;4.13;;;6.60;99.90;;;;;;5053751;28;20592;-61
2024/03/04 02:41:40;;;;;;;6.38;3.30;;;6.40;99.90;;;;;;5054127;28;20194;-61
2024/03/04 02:44:08;;;;;;;22.40;4.43;;;6.30;99.90;;;;;;5054229;28;20172;-61
2024/03/04 02:46:34;;;;;;;13.85;3.50;;;6.30;99.90;;;;;;5053913;28;20208;-61
2024/03/04 02:49:00;;;;;;;9.20;3.00;;;6.30;99.90;;;;;;5053618;28;20213;-61
2024/03/04 02:51:25;;;;;;;5.60;2.80;;;6.30;99.90;;;;;;5053745;28;20681;-61
2024/03/04 02:53:51;;;;;;;5.77;3.23;;;6.40;99.90;;;;;;5053673;28;20191;-61
2024/03/04 02:56:17;;;;;;;6.67;3.03;;;6.50;99.90;;;;;;5053734;28;20792;-61
2024/03/04 02:58:42;;;;;;;9.30;2.77;;;6.60;99.90;;;;;;5053579;28;20875;-61
2024/03/04 03:01:08;;;;;;;2.97;2.73;;;6.60;99.90;;;;;;5053636;28;20607;-61
2024/03/04 03:03:33;;;;;;;2.30;1.60;;;6.60;99.90;;;;;;5053549;28;20178;-61
2024/03/04 03:05:59;;;;;;;2.93;2.23;;;6.60;99.90;;;;;;5053524;28;20176;-61
2024/03/04 03:08:25;;;;;;;5.47;2.97;;;6.50;99.90;;;;;;5053211;28;20182;-61
2024/03/04 03:10:51;;;;;;;3.13;2.90;;;6.40;99.90;;;;;;5053141;28;20634;-61
2024/03/04 03:13:17;;;;;;;4.27;1.90;;;6.50;99.90;;;;;;5053370;28;20535;-61
2024/03/04 03:15:44;;;;;;;2.85;2.65;;;6.60;99.90;;;;;;5053688;28;20635;-61
2024/03/04 03:18:13;;;;;;;2.17;1.85;;;6.50;99.90;;;;;;5035476;28;20593;-61
2024/03/04 03:20:39;;;;;;;3.05;2.72;;;6.50;99.90;;;;;;5053222;28;20201;-61
2024/03/04 03:23:04;;;;;;;7.23;3.07;;;6.60;99.90;;;;;;5051733;28;20187;-61
2024/03/04 03:25:31;;;;;;;6.03;2.57;;;6.50;99.90;;;;;;5053292;28;20172;-60
2024/03/04 03:27:56;;;;;;;14.02;3.58;;;6.50;99.90;;;;;;5052762;28;20176;-61
2024/03/04 03:30:23;;;;;;;5.30;3.23;;;6.50;99.90;;;;;;5052300;28;20564;-61
2024/03/04 03:32:48;;;;;;;6.13;3.30;;;6.40;99.90;;;;;;5052999;28;20195;-61
2024/03/04 03:35:14;;;;;;;13.27;3.37;;;6.30;99.90;;;;;;5052984;28;20173;-61
2024/03/04 03:37:40;;;;;;;7.47;2.70;;;6.40;99.90;;;;;;5052764;28;20709;-61
2024/03/04 03:40:07;;;;;;;2.70;2.30;;;6.40;99.90;;;;;;5052899;28;20171;-61
2024/03/04 03:42:33;;;;;;;3.00;1.75;;;6.50;99.90;;;;;;5052856;28;20253;-61
2024/03/04 03:44:59;;;;;;;3.20;2.90;;;6.50;99.90;;;;;;5052853;28;20198;-61
2024/03/04 03:47:24;;;;;;;13.50;3.30;;;6.50;99.90;;;;;;5053128;28;20496;-60
2024/03/04 03:49:50;;;;;;;6.90;2.63;;;6.50;99.90;;;;;;5052626;28;20167;-61
2024/03/04 03:52:15;;;;;;;6.33;3.70;;;6.50;99.90;;;;;;5052078;28;20686;-61
2024/03/04 03:54:41;;;;;;;10.23;3.30;;;6.50;99.90;;;;;;5052695;28;20182;-61
2024/03/04 03:57:07;;;;;;;6.87;2.80;;;6.50;99.90;;;;;;5052557;28;20170;-61
2024/03/04 03:59:32;;;;;;;9.70;2.87;;;6.50;99.90;;;;;;5052705;28;20212;-61
2024/03/04 04:01:58;;;;;;;8.13;3.43;;;6.40;99.90;;;;;;5052276;28;20271;-61
2024/03/04 04:04:26;;;;;;;7.60;2.27;;;6.40;99.90;;;;;;5052411;28;20649;-61
2024/03/04 04:06:52;;;;;;;21.50;5.93;;;6.50;99.90;;;;;;5052330;28;20169;-61
2024/03/04 04:09:18;;;;;;;14.50;3.47;;;6.50;99.90;;;;;;5052233;28;20193;-61
2024/03/04 04:11:44;;;;;;;15.13;3.30;;;6.50;99.90;;;;;;5052180;28;20198;-61
2024/03/04 04:14:10;;;;;;;7.00;2.63;;;6.50;99.90;;;;;;5052174;28;20194;-61
2024/03/04 04:16:37;;;;;;;12.85;3.58;;;6.50;99.90;;;;;;5052074;28;20181;-61
2024/03/04 04:19:04;;;;;;;8.10;3.20;;;6.50;99.90;;;;;;5052101;28;20182;-61
2024/03/04 04:21:31;;;;;;;20.67;4.05;;;6.40;99.90;;;;;;5051997;28;20187;-61
2024/03/04 04:23:56;;;;;;;8.90;3.35;;;6.40;99.90;;;;;;5052155;28;20192;-61
2024/03/04 04:26:26;;;;;;;7.30;2.70;;;6.40;99.90;;;;;;5051999;28;20259;-61
2024/03/04 04:28:52;;;;;;;9.48;4.03;;;6.50;99.90;;;;;;5051701;28;20167;-61
2024/03/04 04:31:22;;;;;;;8.43;2.90;;;6.50;99.90;;;;;;5052121;28;20494;-61
2024/03/04 04:33:48;;;;;;;9.23;3.40;;;6.40;99.90;;;;;;5051956;28;20643;-61
2024/03/04 04:36:16;;;;;;;13.38;3.75;;;6.40;99.90;;;;;;5051850;28;20175;-61
2024/03/04 04:38:42;;;;;;;9.70;3.40;;;6.40;99.90;;;;;;5051686;28;20261;-61
2024/03/04 04:41:08;;;;;;;27.10;5.20;;;6.40;99.90;;;;;;5051625;28;20194;-61
2024/03/04 04:43:33;;;;;;;17.70;3.90;;;6.30;99.90;;;;;;5051689;28;20255;-61
2024/03/04 04:45:59;;;;;;;8.63;3.07;;;6.30;99.90;;;;;;5051986;28;20301;-60
2024/03/04 04:48:25;;;;;;;17.60;3.57;;;6.50;99.90;;;;;;5051458;28;20174;-61
2024/03/04 04:50:50;;;;;;;8.83;2.90;;;6.50;99.90;;;;;;5051623;28;20245;-61
2024/03/04 04:53:16;;;;;;;5.33;2.30;;;6.50;99.90;;;;;;5051550;28;20273;-61
2024/03/04 04:55:41;;;;;;;35.53;6.63;;;6.50;99.90;;;;;;5051645;28;20166;-61
2024/03/04 04:58:07;;;;;;;27.53;3.13;;;6.50;99.90;;;;;;5051165;28;20263;-61
2024/03/04 05:00:33;;;;;;;15.07;4.47;;;6.40;99.90;;;;;;5051495;28;20270;-61
2024/03/04 05:02:58;;;;;;;13.47;3.33;;;6.30;99.90;;;;;;5051455;28;20174;-61
2024/03/04 05:05:24;;;;;;;8.07;2.27;;;6.30;99.90;;;;;;5051444;28;20306;-61
2024/03/04 05:07:50;;;;;;;15.30;4.70;;;6.30;99.90;;;;;;5051165;28;20268;-61
2024/03/04 05:10:16;;;;;;;13.32;3.47;;;6.30;99.90;;;;;;5051158;28;20223;-61
2024/03/04 05:12:42;;;;;;;18.93;4.03;;;6.30;99.90;;;;;;5051234;28;20256;-61
2024/03/04 05:15:08;;;;;;;7.47;3.40;;;6.30;99.90;;;;;;5051408;28;20638;-61
2024/03/04 05:17:36;;;;;;;6.77;2.30;;;6.30;99.90;;;;;;5051118;28;20489;-61
2024/03/04 05:20:06;;;;;;;4.57;2.05;;;6.30;99.90;;;;;;5051453;28;20412;-61
2024/03/04 05:22:32;;;;;;;20.05;4.47;;;6.30;99.90;;;;;;5051356;28;20685;-61
2024/03/04 05:24:57;;;;;;;10.20;3.20;;;6.20;99.90;;;;;;5051267;28;20175;-61
2024/03/04 05:27:23;;;;;;;33.93;5.70;;;6.10;99.90;;;;;;5051174;28;20174;-61
2024/03/04 05:29:49;;;;;;;8.33;2.63;;;6.20;99.90;;;;;;5051014;28;20181;-61
2024/03/04 05:32:14;;;;;;;30.03;4.00;;;6.00;99.90;;;;;;5051191;28;20202;-61
2024/03/04 05:34:40;;;;;;;22.40;3.10;;;6.10;99.90;;;;;;5051283;28;20351;-60
2024/03/04 05:37:06;;;;;;;10.43;3.05;;;6.10;99.90;;;;;;5051142;28;20291;-61
2024/03/04 05:39:32;;;;;;;7.37;3.23;;;6.10;99.90;;;;;;5050996;28;20178;-61
2024/03/04 05:41:58;;;;;;;17.33;4.43;;;6.20;99.90;;;;;;5051012;28;20186;-61
2024/03/04 05:44:24;;;;;;;5.05;3.22;;;6.10;99.90;;;;;;5051349;28;20199;-61
2024/03/04 05:46:50;;;;;;;6.30;3.10;;;6.20;99.90;;;;;;5051133;28;20211;-61
2024/03/04 05:49:15;;;;;;;6.40;2.70;;;6.20;99.90;;;;;;5050929;28;20175;-61
2024/03/04 05:51:41;;;;;;;5.63;2.70;;;6.30;99.90;;;;;;5051144;28;20249;-61
2024/03/04 05:54:09;;;;;;;5.68;2.50;;;6.30;99.90;;;;;;5054793;28;20687;-61
2024/03/04 05:56:43;;;;;;;5.35;3.30;;;6.30;99.90;;;;;;5054881;28;20269;-61
2024/03/04 05:59:12;;;;;;;11.73;3.78;;;6.30;99.90;;;;;;5054606;28;20168;-61
2024/03/04 06:01:38;;;;;;;4.25;2.03;;;6.30;99.90;;;;;;5054685;28;20234;-60
2024/03/04 06:04:04;;;;;;;4.50;3.08;;;6.30;99.90;;;;;;5054871;28;20555;-61
2024/03/04 06:06:30;;;;;;;11.63;3.60;;;6.30;99.90;;;;;;5054671;28;20259;-61
2024/03/04 06:08:58;;;;;;;12.18;2.83;;;6.30;99.90;;;;;;5054309;28;20415;-61
2024/03/04 06:11:26;;;;;;;8.57;3.70;;;6.20;99.90;;;;;;5054615;28;20292;-61
2024/03/04 06:13:52;;;;;;;8.05;2.85;;;6.10;99.90;;;;;;5054436;28;20290;-61
2024/03/04 06:16:18;;;;;;;5.80;2.40;;;6.10;99.90;;;;;;5054452;28;20215;-61
2024/03/04 06:18:43;;;;;;;3.50;2.83;;;6.20;99.90;;;;;;5054123;28;20977;-61
2024/03/04 06:21:09;;;;;;;7.33;2.57;;;6.10;99.90;;;;;;5054350;28;20193;-61
2024/03/04 06:23:35;;;;;;;5.87;2.47;;;6.10;99.90;;;;;;5054314;28;20172;-61
2024/03/04 06:26:01;;;;;;;3.27;2.30;;;6.20;99.90;;;;;;5054517;28;20635;-61
2024/03/04 06:28:26;;;;;;;3.20;2.90;;;6.20;99.90;;;;;;5054155;28;20420;-62
2024/03/04 06:30:52;;;;;;;3.80;2.40;;;6.20;99.90;;;;;;5048161;28;20429;-62
2024/03/04 06:33:18;;;;;;;7.17;3.00;;;6.30;99.90;;;;;;5034102;28;20699;-61
2024/03/04 06:35:43;;;;;;;4.00;2.43;;;6.30;99.90;;;;;;5034073;28;20672;-61
2024/03/04 06:38:09;;;;;;;4.33;2.37;;;6.20;99.90;;;;;;5033533;28;20245;-60
2024/03/04 06:40:35;;;;;;;2.63;2.00;;;6.10;99.90;;;;;;5033968;28;20670;-61
2024/03/04 06:43:00;;;;;;;6.30;2.57;;;6.10;99.90;;;;;;5033910;28;20221;-61
2024/03/04 06:45:26;;;;;;;6.23;2.50;;;6.10;99.90;;;;;;5033991;28;20221;-61
2024/03/04 06:47:53;;;;;;;13.00;3.33;;;6.00;99.90;;;;;;5033843;28;20251;-62
2024/03/04 06:50:18;;;;;;;13.57;3.63;;;5.90;99.90;;;;;;5033719;28;20698;-61
2024/03/04 06:52:44;;;;;;;6.77;2.73;;;5.90;99.90;;;;;;5033684;28;20203;-61
2024/03/04 06:55:09;;;;;;;3.50;2.40;;;6.00;99.90;;;;;;5033927;28;20173;-61
2024/03/04 06:57:35;;;;;;;2.90;2.00;;;6.00;99.90;;;;;;5033630;28;20259;-61
2024/03/04 07:00:03;;;;;;;3.30;2.90;;;6.10;99.90;;;;;;5033874;28;20584;-61
2024/03/04 07:02:28;;;;;;;3.60;2.47;;;6.20;99.90;;;;;;5033644;28;20187;-61
2024/03/04 07:04:54;;;;;;;4.53;2.20;;;6.20;99.90;;;;;;5032414;28;20176;-61
2024/03/04 07:07:20;;;;;;;3.63;2.43;;;6.30;99.90;;;;;;5033404;28;20182;-61
2024/03/04 07:09:45;;;;;;;2.67;1.97;;;6.40;99.90;;;;;;5033487;28;20712;-61
2024/03/04 07:12:11;;;;;;;5.27;2.30;;;6.40;99.90;;;;;;5033428;28;20204;-61
2024/03/04 07:14:37;;;;;;;2.40;2.20;;;6.40;99.90;;;;;;5033481;28;20576;-61
2024/03/04 07:17:03;;;;;;;3.33;2.57;;;6.50;99.90;;;;;;5033508;28;20175;-61
2024/03/04 07:19:29;;;;;;;4.22;1.80;;;6.50;99.90;;;;;;5033250;28;20185;-61
2024/03/04 07:21:54;;;;;;;3.67;1.70;;;6.60;99.90;;;;;;5033184;28;20206;-61
2024/03/04 07:24:20;;;;;;;6.20;2.90;;;6.60;99.90;;;;;;5033636;28;20567;-61
2024/03/04 07:26:46;;;;;;;3.67;2.10;;;6.70;99.90;;;;;;5033563;28;20172;-61
2024/03/04 07:29:11;;;;;;;4.27;3.03;;;6.70;99.90;;;;;;5033183;28;20182;-61
2024/03/04 07:31:37;;;;;;;3.50;2.20;;;6.60;99.90;;;;;;5033157;28;20433;-61
2024/03/04 07:34:02;;;;;;;5.20;2.03;;;6.60;99.90;;;;;;5032978;28;20211;-61
2024/03/04 07:36:28;;;;;;;3.90;2.33;;;6.50;99.90;;;;;;5032954;28;20235;-61
2024/03/04 07:38:54;;;;;;;4.30;2.37;;;6.60;99.90;;;;;;5032745;28;20172;-61
2024/03/04 07:41:19;;;;;;;3.27;2.97;;;6.60;99.90;;;;;;5032941;28;20196;-62
2024/03/04 07:43:45;;;;;;;4.70;2.30;;;6.70;99.90;;;;;;5032950;28;20519;-62
2024/03/04 07:46:11;;;;;;;4.57;3.07;;;6.70;99.90;;;;;;5032873;28;20178;-60
2024/03/04 07:48:36;;;;;;;1.83;1.73;;;6.70;99.90;;;;;;5032567;28;20240;-62
2024/03/04 07:51:02;;;;;;;2.53;2.33;;;6.90;99.90;;;;;;5032694;28;20187;-61
2024/03/04 07:53:28;;;;;;;4.23;3.17;;;7.00;99.90;;;;;;5032893;28;20588;-62
2024/03/04 07:55:53;;;;;;;4.27;3.20;;;7.00;99.90;;;;;;5032931;28;20443;-62
2024/03/04 07:58:19;;;;;;;3.17;2.70;;;6.80;99.90;;;;;;5032432;28;20647;-61
2024/03/04 08:00:44;;;;;;;3.20;2.00;;;6.70;99.90;;;;;;5032587;28;20197;-60
2024/03/04 08:03:10;;;;;;;3.00;2.70;;;6.60;99.90;;;;;;5032673;28;20185;-61
2024/03/04 08:05:35;;;;;;;4.27;2.00;;;6.50;99.90;;;;;;5032533;28;20254;-62
2024/03/04 08:08:01;;;;;;;3.10;2.00;;;6.40;99.90;;;;;;5032215;28;20268;-62
2024/03/04 08:10:27;;;;;;;5.30;2.60;;;6.30;99.90;;;;;;5032292;28;20230;-60
2024/03/04 08:12:53;;;;;;;6.23;2.63;;;6.30;99.90;;;;;;5032365;28;20639;-59
2024/03/04 08:15:18;;;;;;;3.53;2.50;;;6.20;99.90;;;;;;5031951;28;20412;-62
2024/03/04 08:17:44;;;;;;;8.43;3.40;;;6.20;99.90;;;;;;5032027;28;20243;-59
2024/03/04 08:20:10;;;;;;;21.20;4.87;;;6.20;99.90;;;;;;5032123;28;20174;-60
2024/03/04 08:22:36;;;;;;;19.40;3.95;;;6.10;99.90;;;;;;5088194;22;20224;-62
2024/03/04 08:25:03;;;;;;;21.73;4.10;;;5.90;99.90;;;;;;5071753;28;20188;-61
2024/03/04 08:27:29;;;;;;;2.03;1.60;;;5.80;99.90;;;;;;5053845;28;20172;-61
2024/03/04 08:29:54;;;;;;;12.40;2.87;;;5.80;99.90;;;;;;5071658;28;20188;-61
2024/03/04 08:32:20;;;;;;;8.87;3.83;;;5.90;99.90;;;;;;5071747;28;20192;-61
2024/03/04 08:34:49;;;;;;;18.37;4.57;;;5.80;99.90;;;;;;5071689;28;20266;-62
2024/03/04 08:37:15;;;;;;;4.97;2.70;;;6.00;99.90;;;;;;5053706;28;20665;-63
2024/03/04 08:39:41;;;;;;;23.47;4.63;;;6.00;99.90;;;;;;5071346;28;20215;-61
2024/03/04 08:42:06;;;;;;;36.10;4.97;;;6.00;99.90;;;;;;5071534;28;20189;-61
2024/03/04 08:44:32;;;;;;;42.97;6.10;;;6.00;99.90;;;;;;5071688;28;20177;-61
2024/03/04 08:46:57;;;;;;;40.90;7.63;;;6.00;99.90;;;;;;5071477;28;20201;-62
2024/03/04 08:49:24;;;;;;;24.40;4.87;;;6.00;99.90;;;;;;5070763;28;20176;-61
2024/03/04 08:51:50;;;;;;;37.33;7.07;;;6.00;99.90;;;;;;5071744;28;20692;-60
2024/03/04 08:54:16;;;;;;;35.70;4.47;;;6.10;99.90;;;;;;5071403;28;20226;-62
2024/03/04 08:56:41;;;;;;;20.60;5.10;;;6.20;99.90;;;;;;5071580;28;20671;-64
2024/03/04 08:59:07;;;;;;;46.07;5.57;;;6.20;99.90;;;;;;5071260;28;20197;-61
2024/03/04 09:01:32;;;;;;;21.77;4.40;;;6.30;99.90;;;;;;5071401;28;20181;-62
2024/03/04 09:03:59;;;;;;;33.67;4.90;;;6.50;99.90;;;;;;5071442;28;20172;-63
2024/03/04 09:06:25;;;;;;;43.97;7.18;;;6.70;99.90;;;;;;5068764;28;20175;-63
2024/03/04 09:08:51;;;;;;;28.65;5.28;;;6.80;99.90;;;;;;5065098;28;20270;-63
2024/03/04 09:11:18;;;;;;;24.03;2.90;;;6.90;99.90;;;;;;5065842;28;20295;-62
2024/03/04 09:13:44;;;;;;;30.80;4.75;;;6.90;99.90;;;;;;5067628;28;20465;-63
2024/03/04 09:16:10;;;;;;;27.47;6.27;;;6.80;99.90;;;;;;5071116;28;20688;-63
2024/03/04 09:18:41;;;;;;;23.83;4.53;;;6.80;99.90;;;;;;5071608;28;20271;-64
2024/03/04 09:21:07;;;;;;;15.07;3.78;;;6.80;99.90;;;;;;5071888;28;20234;-61
2024/03/04 09:23:35;;;;;;;15.43;3.25;;;6.80;99.90;;;;;;5067131;28;20200;-58
2024/03/04 09:26:03;;;;;;;10.02;2.40;;;6.80;99.90;;;;;;5069410;28;20203;-59
2024/03/04 09:28:29;;;;;;;4.68;1.90;;;6.70;99.90;;;;;;5074283;28;20237;-58
2024/03/04 09:30:56;;;;;;;16.10;3.55;;;6.70;99.90;;;;;;5074829;28;20696;-59
2024/03/04 09:33:23;;;;;;;20.23;3.03;;;6.70;99.90;;;;;;5074953;28;20202;-58
2024/03/04 09:35:49;;;;;;;27.58;4.40;;;6.60;99.90;;;;;;5075285;28;20165;-59
2024/03/04 09:38:18;;;;;;;13.95;3.17;;;6.50;99.90;;;;;;5075197;28;20654;-58
2024/03/04 09:40:51;;;;;;;14.95;5.07;;;6.50;99.90;;;;;;5074969;28;20215;-59
2024/03/04 09:43:20;;;;;;;11.30;3.28;;;6.50;99.90;;;;;;5075262;28;20259;-59
2024/03/04 09:45:52;;;;;;;6.15;3.08;;;6.60;99.90;;;;;;5056857;28;20245;-57
2024/03/04 09:48:21;;;;;;;16.88;3.90;;;6.60;99.90;;;;;;5074302;28;20168;-60
2024/03/04 09:50:47;;;;;;;17.50;3.58;;;6.70;99.90;;;;;;5075158;28;20543;-57
2024/03/04 09:53:16;;;;;;;8.27;2.47;;;6.70;99.90;;;;;;5074619;28;20637;-57
2024/03/04 09:55:43;;;;;;;15.85;4.65;;;6.60;99.90;;;;;;5074706;28;20591;-57
2024/03/04 09:58:11;;;;;;;30.00;3.85;;;6.40;99.90;;;;;;5074296;28;20175;-57
2024/03/04 10:00:38;;;;;;;18.60;5.63;;;6.20;99.90;;;;;;5074504;28;20172;-57
2024/03/04 10:03:07;;;;;;;26.63;4.13;;;6.20;99.90;;;;;;5074439;28;20654;-57
2024/03/04 10:05:34;;;;;;;30.92;5.18;;;6.10;99.90;;;;;;5074331;28;20183;-57
2024/03/04 10:11:47;;;;;;;16.60;4.32;;;6.10;99.90;;;;;;5033296;28;20243;-54
2024/03/04 10:14:13;;;;;;;11.88;2.85;;;6.10;99.90;;;;;;5071075;28;20295;-57
2024/03/04 10:16:39;;;;;;;29.08;4.03;;;6.10;99.90;;;;;;5074250;28;20194;-56
2024/03/04 10:19:05;;;;;;;2.47;1.90;;;6.20;99.90;;;;;;5074008;28;20194;-54
2024/03/04 10:21:31;;;;;;;10.03;2.37;;;6.40;99.90;;;;;;5074398;28;20460;-57
2024/03/04 10:24:08;;;;;;;6.97;2.60;;;6.60;99.90;;;;;;5074328;28;20179;-57
2024/03/04 10:26:45;;;;;;;2.97;1.80;;;6.90;99.90;;;;;;5071832;28;20244;-58
2024/03/04 10:29:12;;;;;;;2.33;2.13;;;7.00;99.90;;;;;;5073673;28;20208;-57
2024/03/04 10:31:58;;;;;;;3.15;2.45;;;7.10;99.90;;;;;;5074346;28;20181;-57
2024/03/04 10:34:24;;;;;;;2.65;2.22;;;7.20;99.90;;;;;;5073556;28;20662;-58
2024/03/04 10:36:51;;;;;;;2.27;1.80;;;7.30;99.90;;;;;;5074076;28;20185;-58
2024/03/04 10:39:17;;;;;;;3.47;2.10;;;7.40;99.90;;;;;;5073225;28;20197;-58
2024/03/04 10:41:46;;;;;;;2.03;1.83;;;7.50;99.90;;;;;;5074057;28;20631;-57
2024/03/04 10:44:26;;;;;;;3.63;2.30;;;7.50;99.90;;;;;;5073925;28;20499;-58
2024/03/04 10:46:54;;;;;;;3.78;1.95;;;7.50;99.90;;;;;;5074240;28;20557;-57
2024/03/04 10:49:23;;;;;;;6.07;2.33;;;7.60;99.90;;;;;;5073619;28;20276;-57
2024/03/04 10:51:49;;;;;;;2.80;2.25;;;7.70;99.90;;;;;;5073657;28;20185;-57
2024/03/04 10:54:21;;;;;;;2.47;1.73;;;7.80;99.90;;;;;;5073725;28;20201;-55
2024/03/04 10:56:57;;;;;;;3.70;2.10;;;7.90;99.90;;;;;;5073752;28;20427;-57
2024/03/04 10:59:30;;;;;;;2.60;1.80;;;8.00;99.90;;;;;;5055257;28;20234;-58
2024/03/04 11:01:57;;;;;;;1.50;1.40;;;8.10;99.90;;;;;;5073744;28;20168;-57
2024/03/04 11:04:24;;;;;;;3.80;1.70;;;8.30;99.90;;;;;;5073550;28;20642;-59
2024/03/04 11:06:50;;;;;;;4.35;1.55;;;8.50;99.90;;;;;;5073757;28;20170;-58
2024/03/04 11:09:16;;;;;;;5.73;1.43;;;8.60;99.90;;;;;;5073152;28;20739;-59
2024/03/04 11:11:48;;;;;;;2.05;1.45;;;8.60;99.90;;;;;;5073509;28;20786;-58
2024/03/04 11:14:24;;;;;;;1.77;1.33;;;8.70;99.90;;;;;;5073406;28;20215;-57
2024/03/04 11:17:04;;;;;;;1.73;1.48;;;8.70;99.70;;;;;;5073318;28;20189;-58
2024/03/04 11:19:55;;;;;;;4.63;1.45;;;8.70;99.80;;;;;;5073006;28;20189;-59
2024/03/04 11:22:22;;;;;;;1.90;1.60;;;8.80;99.90;;;;;;5063374;28;20562;-58
2024/03/04 11:24:49;;;;;;;2.95;1.83;;;8.80;99.40;;;;;;5073287;28;20170;-59
2024/03/04 11:27:17;;;;;;;2.05;1.42;;;8.90;99.60;;;;;;5058697;28;20170;-58
2024/03/04 11:29:44;;;;;;;1.80;1.70;;;8.90;99.80;;;;;;5053036;28;20198;-58
2024/03/04 11:32:10;;;;;;;2.20;2.00;;;9.10;99.70;;;;;;5053359;28;20170;-56
2024/03/04 11:35:05;;;;;;;4.32;1.95;;;9.20;99.60;;;;;;5053348;28;20233;-57
2024/03/04 11:37:32;;;;;;;2.65;1.58;;;9.30;98.90;;;;;;5052840;28;20167;-58
2024/03/04 11:39:59;;;;;;;1.33;1.23;;;9.40;98.80;;;;;;5053121;28;20205;-58
2024/03/04 11:42:38;;;;;;;2.23;2.03;;;9.30;98.60;;;;;;5053060;28;20396;-58
2024/03/04 11:45:08;;;;;;;1.77;1.27;;;9.30;98.70;;;;;;5053068;28;20409;-57
2024/03/04 11:47:34;;;;;;;2.00;1.50;;;9.30;98.50;;;;;;5052697;28;20647;-58
2024/03/04 11:50:04;;;;;;;2.90;2.27;;;9.20;98.50;;;;;;5052092;28;20182;-58
2024/03/04 11:52:35;;;;;;;1.30;1.20;;;9.20;98.40;;;;;;5052753;28;20566;-58
2024/03/04 11:55:00;;;;;;;1.38;1.27;;;9.40;98.30;;;;;;5052871;28;20182;-58
2024/03/04 11:57:26;;;;;;;2.33;2.10;;;9.30;98.20;;;;;;5052569;28;20177;-58
2024/03/04 11:59:58;;;;;;;6.07;1.67;;;9.30;98.50;;;;;;5054105;28;20564;-59
2024/03/04 12:02:23;;;;;;;1.70;1.60;;;9.20;98.60;;;;;;5072784;28;20169;-58
2024/03/04 12:04:50;;;;;;;4.67;2.13;;;9.20;98.80;;;;;;5072439;28;20177;-58
2024/03/04 12:07:16;;;;;;;1.92;1.70;;;9.20;98.80;;;;;;5072614;28;20179;-58
2024/03/04 12:09:41;;;;;;;2.07;1.40;;;9.30;98.80;;;;;;5072211;28;20640;-58
2024/03/04 12:12:10;;;;;;;1.33;1.20;;;9.40;98.70;;;;;;5072404;28;20175;-58
2024/03/04 12:14:36;;;;;;;2.22;1.75;;;9.50;98.60;;;;;;5072232;28;20201;-59
2024/03/04 12:17:01;;;;;;;4.20;2.60;;;9.60;98.80;;;;;;5072367;28;20600;-58
2024/03/04 12:19:27;;;;;;;25.43;15.40;;;9.80;98.70;;;;;;5071786;28;20189;-58
2024/03/04 12:21:53;;;;;;;20.73;9.43;;;9.80;97.90;;;;;;5072353;28;20173;-58
2024/03/04 12:24:21;;;;;;;16.33;11.30;;;9.70;97.90;;;;;;5072193;28;20222;-58
2024/03/04 12:26:51;;;;;;;2.92;2.67;;;9.80;98.10;;;;;;5054512;28;20928;-58
2024/03/04 12:29:22;;;;;;;3.85;3.30;;;9.80;98.10;;;;;;5051845;28;20198;-59
2024/03/04 12:31:47;;;;;;;1.90;1.77;;;9.70;98.30;;;;;;5052124;28;20162;-57
2024/03/04 12:34:13;;;;;;;5.53;4.40;;;9.50;98.90;;;;;;5051722;28;20202;-58
2024/03/04 12:36:47;;;;;;;16.57;11.10;;;9.50;98.70;;;;;;5051460;28;20166;-58
2024/03/04 12:39:15;;;;;;;39.03;20.65;;;9.40;98.60;;;;;;5051796;28;20184;-58
2024/03/04 12:41:40;;;;;;;30.55;19.58;;;9.40;98.70;;;;;;5052044;28;20227;-58
2024/03/04 12:44:06;;;;;;;8.83;5.60;;;9.40;98.70;;;;;;5051533;28;20166;-58
2024/03/04 12:46:35;;;;;;;17.27;11.97;;;9.40;98.90;;;;;;5051548;28;20193;-58
2024/03/04 12:49:07;;;;;;;12.50;8.68;;;9.30;99.00;;;;;;5051452;28;20198;-58
2024/03/04 12:51:36;;;;;;;3.95;2.85;;;9.20;99.30;;;;;;5058977;28;20184;-58
2024/03/04 12:54:05;;;;;;;12.77;7.60;;;9.20;99.40;;;;;;5071456;28;20201;-58
2024/03/04 12:56:32;;;;;;;11.85;7.75;;;9.30;99.50;;;;;;5071639;28;20180;-57